Time;durP1;ratioP1;P1;durP2;ratioP2;P2;SDS_P1;SDS_P2;PMS_P1;PMS_P2;Temp;Humidity;BMP_temperature;BMP_pressure;BME280_temperature;BME280_humidity;BME280_pressure;Samples;Min_cycle;Max_cycle;Signal;HPM_P1;HPM_P2
2021/10/29 00:00:35;;;;;;;2.00;1.10;;;21.70;52.20;;;;;;5007049;28;20029;-61
2021/10/29 00:03:05;;;;;;;1.73;1.20;;;21.70;52.20;;;;;;4990955;28;20105;-58
2021/10/29 00:05:32;;;;;;;2.03;1.30;;;21.70;52.20;;;;;;4990033;28;20149;-62
2021/10/29 00:07:58;;;;;;;1.80;1.13;;;21.70;52.30;;;;;;4982809;28;20166;-60
2021/10/29 00:10:24;;;;;;;2.08;1.10;;;21.70;52.30;;;;;;4993604;28;20680;-61
2021/10/29 00:12:50;;;;;;;1.88;1.20;;;21.70;52.30;;;;;;5002517;28;20030;-56
2021/10/29 00:15:16;;;;;;;1.48;1.10;;;21.70;52.30;;;;;;4989309;28;20030;-58
2021/10/29 00:17:42;;;;;;;1.50;1.02;;;21.70;52.30;;;;;;4980006;28;20213;-61
2021/10/29 00:20:08;;;;;;;1.83;1.20;;;21.70;52.30;;;;;;4989796;28;20414;-60
2021/10/29 00:22:34;;;;;;;2.13;1.20;;;21.60;52.30;;;;;;4989946;28;20093;-61
2021/10/29 00:24:59;;;;;;;2.28;1.10;;;21.60;52.30;;;;;;4991442;28;20034;-61
2021/10/29 00:27:25;;;;;;;1.77;1.00;;;21.60;52.30;;;;;;4991144;28;20045;-56
2021/10/29 00:29:51;;;;;;;1.67;1.08;;;21.60;52.30;;;;;;4993563;28;20022;-58
2021/10/29 00:32:16;;;;;;;1.50;1.10;;;21.60;52.30;;;;;;4989755;28;20399;-55
2021/10/29 00:34:42;;;;;;;1.88;1.08;;;21.60;52.30;;;;;;4981942;28;20419;-62
2021/10/29 00:37:08;;;;;;;1.80;1.10;;;21.60;52.30;;;;;;4987574;28;20030;-60
2021/10/29 00:39:33;;;;;;;1.55;1.10;;;21.60;52.40;;;;;;5001626;28;20042;-60
2021/10/29 00:42:01;;;;;;;1.20;0.90;;;21.60;52.30;;;;;;4994864;28;20494;-61
2021/10/29 00:44:27;;;;;;;1.13;0.93;;;21.60;52.40;;;;;;4996549;28;20026;-60
2021/10/29 00:46:53;;;;;;;2.08;1.10;;;21.50;52.40;;;;;;4989718;28;20501;-60
2021/10/29 00:49:20;;;;;;;1.48;1.05;;;21.50;52.40;;;;;;4988637;28;20045;-62
2021/10/29 00:51:46;;;;;;;2.22;1.23;;;21.50;52.40;;;;;;4998036;28;20098;-58
2021/10/29 00:54:14;;;;;;;1.20;1.02;;;21.50;52.40;;;;;;5002753;28;20703;-60
2021/10/29 00:56:41;;;;;;;1.67;1.00;;;21.50;52.40;;;;;;4990376;28;20439;-56
2021/10/29 00:59:06;;;;;;;1.67;1.17;;;21.50;52.50;;;;;;4991953;28;20022;-58
2021/10/29 01:01:32;;;;;;;1.30;0.90;;;21.50;52.50;;;;;;4989487;28;20039;-61
2021/10/29 01:03:57;;;;;;;1.63;1.00;;;21.50;52.50;;;;;;4994769;28;20065;-62
2021/10/29 01:06:24;;;;;;;1.38;1.00;;;21.50;52.50;;;;;;4988861;28;20041;-60
2021/10/29 01:08:49;;;;;;;1.80;1.00;;;21.50;52.50;;;;;;4994694;28;20411;-61
2021/10/29 01:11:17;;;;;;;1.17;0.85;;;21.40;52.40;;;;;;4980890;28;20093;-61
2021/10/29 01:13:47;;;;;;;2.13;1.00;;;21.50;52.50;;;;;;4985975;28;20439;-60
2021/10/29 01:16:14;;;;;;;1.75;1.00;;;21.40;52.40;;;;;;4992785;28;20101;-57
2021/10/29 01:18:40;;;;;;;1.40;0.98;;;21.40;52.50;;;;;;4986593;28;20038;-57
2021/10/29 01:21:05;;;;;;;1.40;1.08;;;21.40;52.50;;;;;;4993505;28;20031;-58
2021/10/29 01:23:33;;;;;;;1.52;1.05;;;21.40;52.50;;;;;;4991690;28;20153;-59
2021/10/29 01:26:17;;;;;;;1.20;0.90;;;21.40;52.50;;;;;;4998209;28;20053;-60
2021/10/29 01:28:45;;;;;;;1.15;0.90;;;21.40;52.50;;;;;;4990960;28;20027;-60
2021/10/29 01:31:12;;;;;;;1.80;1.20;;;21.40;52.50;;;;;;5003730;28;20030;-56
2021/10/29 01:33:38;;;;;;;1.65;1.10;;;21.40;52.50;;;;;;5007398;28;20319;-61
2021/10/29 01:36:04;;;;;;;2.20;1.10;;;21.40;52.50;;;;;;4998488;28;20049;-62
2021/10/29 01:38:32;;;;;;;1.67;1.05;;;21.40;52.50;;;;;;4987964;28;20023;-60
2021/10/29 01:40:59;;;;;;;1.65;1.20;;;21.40;53.10;;;;;;4987657;28;20033;-60
2021/10/29 01:43:25;;;;;;;1.65;1.00;;;21.30;52.50;;;;;;4997377;28;20038;-61
2021/10/29 01:45:51;;;;;;;1.40;1.13;;;21.30;52.50;;;;;;4985296;28;20030;-60
2021/10/29 01:48:17;;;;;;;1.95;1.20;;;21.30;52.50;;;;;;4999857;28;20169;-61
2021/10/29 01:50:43;;;;;;;1.73;1.05;;;21.30;53.00;;;;;;5001030;28;20128;-59
2021/10/29 01:53:08;;;;;;;1.73;1.13;;;21.30;52.50;;;;;;4983323;28;20081;-62
2021/10/29 01:55:34;;;;;;;1.60;0.90;;;21.30;52.60;;;;;;4993906;28;20018;-60
2021/10/29 01:57:59;;;;;;;1.20;0.90;;;21.30;52.60;;;;;;4989632;28;20045;-59
2021/10/29 02:00:25;;;;;;;1.45;1.05;;;21.30;52.60;;;;;;5006426;28;20466;-62
2021/10/29 02:02:51;;;;;;;1.10;0.90;;;21.30;52.60;;;;;;4990650;28;20034;-60
2021/10/29 02:05:17;;;;;;;1.00;0.85;;;21.30;52.60;;;;;;4993164;28;20030;-62
2021/10/29 02:07:42;;;;;;;1.27;0.98;;;21.20;52.60;;;;;;4988663;28;20445;-59
2021/10/29 02:10:09;;;;;;;1.63;1.05;;;21.20;52.60;;;;;;4994475;28;20022;-60
2021/10/29 02:12:35;;;;;;;1.17;0.90;;;21.20;52.60;;;;;;4977995;28;20022;-57
2021/10/29 02:15:03;;;;;;;1.27;0.90;;;21.20;52.90;;;;;;4997830;28;20477;-61
2021/10/29 02:17:28;;;;;;;0.98;0.80;;;21.20;52.60;;;;;;4997151;28;20379;-60
2021/10/29 02:19:54;;;;;;;1.40;1.00;;;21.20;52.60;;;;;;5001091;28;20034;-55
2021/10/29 02:22:19;;;;;;;1.50;1.10;;;21.20;52.60;;;;;;4995163;28;20141;-61
2021/10/29 02:24:45;;;;;;;1.20;0.98;;;21.20;52.60;;;;;;4999604;28;20029;-61
2021/10/29 02:27:11;;;;;;;1.80;0.95;;;21.20;52.60;;;;;;4981042;28;20080;-62
2021/10/29 02:29:36;;;;;;;1.20;0.90;;;21.20;52.60;;;;;;5004254;28;20036;-56
2021/10/29 02:32:02;;;;;;;1.27;1.00;;;21.20;52.60;;;;;;4993979;28;20121;-61
2021/10/29 02:34:28;;;;;;;1.50;0.98;;;21.20;52.60;;;;;;4993449;28;20428;-55
2021/10/29 02:36:54;;;;;;;1.00;0.82;;;21.20;52.60;;;;;;4997647;28;20042;-58
2021/10/29 02:39:19;;;;;;;1.30;1.00;;;21.20;52.60;;;;;;4992192;28;20594;-60
2021/10/29 02:41:45;;;;;;;1.27;0.90;;;21.20;52.60;;;;;;4981550;28;20027;-61
2021/10/29 02:44:11;;;;;;;1.65;1.02;;;21.20;52.70;;;;;;4991995;28;20390;-57
2021/10/29 02:46:37;;;;;;;1.27;1.00;;;21.10;52.60;;;;;;4974894;28;20035;-61
2021/10/29 02:49:04;;;;;;;1.15;0.95;;;21.10;52.60;;;;;;5002219;28;20022;-61
2021/10/29 02:51:30;;;;;;;1.95;1.10;;;21.10;52.60;;;;;;5007114;28;20092;-62
2021/10/29 02:53:57;;;;;;;0.95;0.82;;;21.10;52.60;;;;;;4996730;28;20136;-60
2021/10/29 02:56:22;;;;;;;1.42;0.95;;;21.10;52.70;;;;;;4998772;28;20510;-60
2021/10/29 02:58:48;;;;;;;0.98;0.88;;;21.10;52.70;;;;;;4989115;28;20034;-58
2021/10/29 03:01:14;;;;;;;1.10;0.90;;;21.10;52.70;;;;;;4995888;28;20092;-60
2021/10/29 03:03:40;;;;;;;1.05;0.90;;;21.10;52.70;;;;;;4979028;28;20038;-58
2021/10/29 03:06:05;;;;;;;1.63;1.00;;;21.10;52.70;;;;;;4986311;28;20038;-61
2021/10/29 03:08:31;;;;;;;1.25;1.00;;;21.10;52.70;;;;;;4990366;28;20026;-56
2021/10/29 03:10:57;;;;;;;0.88;0.80;;;21.10;52.70;;;;;;5005818;28;20117;-60
2021/10/29 03:13:23;;;;;;;1.73;1.08;;;21.00;52.70;;;;;;4999182;28;20348;-60
2021/10/29 03:15:50;;;;;;;1.23;0.90;;;21.10;52.70;;;;;;4985364;28;20435;-62
2021/10/29 03:18:19;;;;;;;1.42;0.80;;;21.10;52.70;;;;;;4988022;28;20049;-60
2021/10/29 03:20:46;;;;;;;1.40;1.17;;;21.10;52.70;;;;;;4989879;28;20368;-60
2021/10/29 03:23:13;;;;;;;0.95;0.85;;;21.00;52.70;;;;;;4999226;28;20032;-58
2021/10/29 03:25:40;;;;;;;1.40;0.85;;;21.00;52.70;;;;;;4991162;28;20053;-60
2021/10/29 03:28:06;;;;;;;1.52;1.00;;;21.00;52.70;;;;;;4996005;28;20026;-62
2021/10/29 03:30:32;;;;;;;1.00;0.85;;;21.00;52.70;;;;;;4987411;28;20041;-59
2021/10/29 03:32:58;;;;;;;1.15;0.90;;;21.00;52.70;;;;;;4989536;28;20039;-62
2021/10/29 03:35:24;;;;;;;1.10;0.90;;;21.00;52.70;;;;;;4987371;28;20036;-59
2021/10/29 03:38:01;;;;;;;1.30;0.82;;;21.00;52.70;;;;;;4983507;28;20030;-60
2021/10/29 03:45:25;;;;;;;1.35;0.80;;;21.00;52.80;;;;;;4993920;28;20034;-56
2021/10/29 03:47:54;;;;;;;1.00;0.80;;;21.00;52.80;;;;;;4999111;28;20039;-62
2021/10/29 03:53:50;;;;;;;1.40;0.93;;;21.00;52.80;;;;;;4988209;28;20029;-60
2021/10/29 03:55:42;;;;;;;1.23;0.90;;;21.00;52.80;;;;;;4994284;28;20042;-59
2021/10/29 03:58:08;;;;;;;1.10;0.90;;;21.00;52.80;;;;;;4982752;28;20106;-60
2021/10/29 04:00:34;;;;;;;1.20;0.85;;;21.00;52.80;;;;;;4989936;28;20430;-60
2021/10/29 04:03:03;;;;;;;1.33;0.90;;;21.00;52.80;;;;;;5003766;28;20069;-61
2021/10/29 04:05:30;;;;;;;1.15;0.90;;;21.00;52.90;;;;;;4987489;28;20030;-60
2021/10/29 04:07:56;;;;;;;1.55;0.98;;;21.00;52.90;;;;;;4992810;28;20034;-62
2021/10/29 04:10:28;;;;;;;1.30;0.80;;;20.90;52.80;;;;;;4985343;28;20055;-60
2021/10/29 04:12:56;;;;;;;1.15;0.90;;;20.90;52.80;;;;;;4989215;28;20132;-62
2021/10/29 04:15:22;;;;;;;1.48;0.90;;;21.00;52.90;;;;;;4999507;28;20083;-60
2021/10/29 04:17:48;;;;;;;1.25;0.90;;;20.90;52.80;;;;;;4999933;28;20063;-60
2021/10/29 04:20:15;;;;;;;1.38;1.00;;;20.90;52.90;;;;;;4991187;28;20117;-60
2021/10/29 04:22:42;;;;;;;1.30;0.90;;;20.90;52.90;;;;;;4984777;28;20060;-59
2021/10/29 04:25:08;;;;;;;1.05;0.80;;;20.90;52.90;;;;;;4993560;28;20034;-60
2021/10/29 04:27:37;;;;;;;1.10;0.90;;;20.90;52.90;;;;;;4993791;28;20038;-60
2021/10/29 04:30:11;;;;;;;1.25;0.90;;;20.90;52.90;;;;;;4987469;28;20361;-60
2021/10/29 04:32:37;;;;;;;1.95;1.15;;;20.90;52.90;;;;;;4987375;28;20057;-57
2021/10/29 04:35:03;;;;;;;1.02;0.80;;;20.90;52.90;;;;;;4994117;28;20574;-61
2021/10/29 04:37:29;;;;;;;1.38;0.90;;;20.90;52.90;;;;;;4986960;28;20022;-58
2021/10/29 04:39:54;;;;;;;1.13;0.82;;;20.90;52.90;;;;;;4989269;28;20030;-60
2021/10/29 04:42:20;;;;;;;1.52;0.93;;;20.90;52.90;;;;;;4986330;28;20030;-60
2021/10/29 04:44:47;;;;;;;1.05;0.90;;;20.90;52.90;;;;;;4970581;28;20486;-61
2021/10/29 04:47:13;;;;;;;1.15;0.80;;;20.90;53.00;;;;;;4997201;28;20053;-61
2021/10/29 04:49:38;;;;;;;1.00;0.80;;;20.90;53.00;;;;;;4990154;28;20040;-59
2021/10/29 04:52:04;;;;;;;1.10;0.90;;;20.90;53.00;;;;;;4993191;28;20030;-60
2021/10/29 04:54:31;;;;;;;1.20;0.80;;;20.90;53.00;;;;;;4982881;28;20184;-59
2021/10/29 04:56:57;;;;;;;1.20;0.80;;;20.90;53.00;;;;;;4991908;28;20038;-62
2021/10/29 04:59:23;;;;;;;0.93;0.80;;;20.90;53.10;;;;;;4986185;28;20088;-59
2021/10/29 05:01:49;;;;;;;1.08;0.75;;;20.90;53.00;;;;;;4985837;28;20046;-59
2021/10/29 05:04:15;;;;;;;1.35;0.90;;;20.90;53.10;;;;;;4977216;28;20081;-60
2021/10/29 05:06:42;;;;;;;0.90;0.80;;;20.90;53.10;;;;;;4980390;28;20077;-61
2021/10/29 05:09:08;;;;;;;0.98;0.77;;;20.80;53.00;;;;;;4989712;28;20048;-57
2021/10/29 05:11:34;;;;;;;0.93;0.80;;;20.90;53.10;;;;;;4999249;28;20030;-58
2021/10/29 05:13:59;;;;;;;1.77;1.20;;;20.90;53.10;;;;;;5001685;28;20026;-58
2021/10/29 05:16:25;;;;;;;0.85;0.70;;;20.90;53.10;;;;;;5001941;28;20053;-61
2021/10/29 05:18:50;;;;;;;1.73;0.85;;;20.90;53.10;;;;;;4999121;28;20038;-55
2021/10/29 05:21:16;;;;;;;1.98;1.00;;;20.90;53.10;;;;;;4998925;28;20148;-58
2021/10/29 05:23:42;;;;;;;1.00;0.80;;;20.80;53.10;;;;;;4999236;28;20037;-58
2021/10/29 05:26:07;;;;;;;0.98;0.88;;;20.80;53.10;;;;;;4998978;28;20031;-60
2021/10/29 05:28:33;;;;;;;1.33;0.80;;;20.80;53.10;;;;;;4994991;28;20030;-60
2021/10/29 05:30:59;;;;;;;1.40;0.70;;;20.80;53.10;;;;;;5000651;28;20153;-60
2021/10/29 05:33:25;;;;;;;1.13;0.90;;;20.80;53.10;;;;;;5001385;28;20066;-56
2021/10/29 05:35:50;;;;;;;1.00;0.80;;;20.80;53.60;;;;;;4991538;28;20050;-55
2021/10/29 05:38:16;;;;;;;0.90;0.60;;;20.80;53.10;;;;;;4991441;28;20033;-60
2021/10/29 05:40:42;;;;;;;1.90;1.00;;;20.80;53.10;;;;;;4987729;28;20101;-62
2021/10/29 05:43:08;;;;;;;2.17;0.85;;;20.80;53.10;;;;;;4997613;28;20026;-59
2021/10/29 05:45:33;;;;;;;1.17;0.80;;;20.80;53.10;;;;;;4998373;28;20033;-60
2021/10/29 05:48:04;;;;;;;0.95;0.68;;;20.80;53.10;;;;;;4993316;28;20104;-61
2021/10/29 05:50:30;;;;;;;1.10;0.80;;;20.80;53.10;;;;;;5001030;28;20114;-59
2021/10/29 05:52:56;;;;;;;0.88;0.80;;;20.80;53.20;;;;;;5000494;28;20025;-60
2021/10/29 05:55:22;;;;;;;1.10;0.85;;;20.80;53.20;;;;;;4999514;28;20113;-58
2021/10/29 05:57:51;;;;;;;0.77;0.75;;;20.80;53.20;;;;;;4997268;28;20105;-60
2021/10/29 06:00:19;;;;;;;2.70;0.90;;;20.80;53.20;;;;;;5005084;28;20033;-61
2021/10/29 06:02:45;;;;;;;1.15;0.77;;;20.80;53.20;;;;;;5005285;28;20113;-56
2021/10/29 06:05:12;;;;;;;1.40;0.90;;;20.80;53.20;;;;;;4993115;28;20117;-61
2021/10/29 06:07:39;;;;;;;1.10;0.70;;;20.80;53.20;;;;;;4999133;28;20793;-56
2021/10/29 06:10:07;;;;;;;1.20;0.82;;;20.80;53.20;;;;;;5004877;28;20053;-58
2021/10/29 06:12:34;;;;;;;1.30;0.90;;;20.80;53.20;;;;;;5001293;28;20101;-57
2021/10/29 06:15:00;;;;;;;1.52;0.98;;;20.80;53.20;;;;;;5006253;28;20505;-62
2021/10/29 06:17:28;;;;;;;1.25;0.85;;;20.80;53.20;;;;;;4998974;28;20060;-59
2021/10/29 06:19:54;;;;;;;1.55;0.73;;;20.80;53.20;;;;;;5004783;28;20391;-57
2021/10/29 06:24:49;;;;;;;1.65;0.80;;;20.80;53.20;;;;;;5006294;28;20529;-60
2021/10/29 06:29:44;;;;;;;1.50;0.80;;;20.70;53.20;;;;;;5000705;28;20108;-60
2021/10/29 06:32:10;;;;;;;1.33;0.82;;;20.70;53.20;;;;;;4990240;28;20045;-60
2021/10/29 06:34:37;;;;;;;1.65;0.90;;;20.80;53.30;;;;;;5005359;28;20030;-60
2021/10/29 06:37:04;;;;;;;1.92;0.90;;;20.80;53.40;;;;;;4987008;28;20083;-60
2021/10/29 06:39:30;;;;;;;1.48;0.80;;;20.80;53.70;;;;;;4985137;28;20569;-59
2021/10/29 06:41:57;;;;;;;2.60;0.90;;;20.80;53.80;;;;;;4998091;28;20041;-60
2021/10/29 06:47:20;;;;;;;1.48;0.80;;;20.80;53.80;;;;;;4983883;28;20030;-60
2021/10/29 07:00:13;;;;;;;1.35;0.88;;;20.70;53.60;;;;;;4993223;28;20034;-58
2021/10/29 07:41:11;;;;;;;1.88;1.00;;;20.70;53.60;;;;;;4998908;28;20083;-61
2021/10/29 07:43:55;;;;;;;1.23;0.82;;;20.70;53.50;;;;;;4996000;28;20161;-59
2021/10/29 07:46:21;;;;;;;2.20;0.80;;;20.70;53.50;;;;;;4989062;28;20410;-61
2021/10/29 07:48:47;;;;;;;1.98;1.00;;;20.70;53.50;;;;;;4982636;28;20097;-61
2021/10/29 07:51:14;;;;;;;1.15;0.88;;;20.70;53.50;;;;;;4982288;28;20110;-59
2021/10/29 07:53:39;;;;;;;1.75;0.90;;;20.70;53.50;;;;;;4993041;28;20454;-59
2021/10/29 07:56:06;;;;;;;1.35;0.90;;;20.70;53.50;;;;;;4999866;28;20124;-60
2021/10/29 07:58:33;;;;;;;1.45;0.90;;;20.70;53.50;;;;;;5003350;28;20026;-60
2021/10/29 08:01:00;;;;;;;1.08;0.75;;;20.60;53.50;;;;;;4980967;28;20038;-60
2021/10/29 08:03:26;;;;;;;1.38;0.90;;;20.60;53.50;;;;;;4985441;28;20450;-58
2021/10/29 08:05:52;;;;;;;1.08;0.80;;;20.60;53.50;;;;;;4990861;28;20038;-60
2021/10/29 08:08:19;;;;;;;1.05;0.93;;;20.70;53.80;;;;;;4989419;28;20037;-58
2021/10/29 08:10:45;;;;;;;1.10;0.80;;;20.60;53.70;;;;;;4986511;28;20038;-61
2021/10/29 08:13:11;;;;;;;1.60;0.90;;;20.60;53.70;;;;;;4992026;28;20029;-60
2021/10/29 08:15:38;;;;;;;2.20;0.82;;;20.60;53.70;;;;;;4995027;28;20065;-60
2021/10/29 08:18:06;;;;;;;1.63;0.90;;;20.70;53.70;;;;;;5000617;28;20038;-62
2021/10/29 08:20:33;;;;;;;0.93;0.70;;;20.60;53.70;;;;;;4987999;28;20496;-61
2021/10/29 08:22:59;;;;;;;1.83;0.80;;;20.60;53.70;;;;;;4987434;28;20477;-58
2021/10/29 08:25:25;;;;;;;0.90;0.73;;;20.60;53.60;;;;;;4986413;28;20062;-60
2021/10/29 08:27:51;;;;;;;1.45;0.80;;;20.60;53.70;;;;;;4983122;28;20030;-60
2021/10/29 08:30:17;;;;;;;1.35;0.88;;;20.60;53.60;;;;;;4981802;28;20041;-60
2021/10/29 08:32:46;;;;;;;1.05;0.80;;;20.60;53.60;;;;;;4996077;28;20034;-58
2021/10/29 08:35:12;;;;;;;1.90;0.95;;;20.60;53.60;;;;;;4989691;28;20118;-58
2021/10/29 08:37:40;;;;;;;1.55;0.90;;;20.60;53.60;;;;;;4988455;28;20103;-59
2021/10/29 08:40:07;;;;;;;1.13;0.80;;;20.60;53.60;;;;;;4991265;28;20100;-61
2021/10/29 08:42:34;;;;;;;1.50;1.00;;;20.60;53.60;;;;;;4980619;28;20033;-61
2021/10/29 08:45:06;;;;;;;1.58;0.90;;;20.60;53.60;;;;;;4993205;28;20030;-62
2021/10/29 08:47:36;;;;;;;1.40;0.80;;;20.60;53.60;;;;;;5003118;28;20049;-60
2021/10/29 08:50:04;;;;;;;1.35;0.95;;;20.60;53.60;;;;;;4999756;28;20026;-60
2021/10/29 08:52:30;;;;;;;1.30;0.80;;;20.60;53.60;;;;;;4990004;28;20160;-59
2021/10/29 08:54:56;;;;;;;1.00;0.80;;;20.60;53.60;;;;;;4990279;28;20137;-58
2021/10/29 08:57:22;;;;;;;0.80;0.70;;;20.60;53.60;;;;;;4994759;28;20084;-58
2021/10/29 08:59:52;;;;;;;1.35;0.95;;;20.60;53.60;;;;;;4985547;28;20030;-54
2021/10/29 09:32:54;;;;;;;1.77;1.05;;;20.60;54.00;;;;;;4990360;28;20041;-59
2021/10/29 09:35:20;;;;;;;1.55;1.00;;;20.70;53.70;;;;;;4983705;28;20038;-59
2021/10/29 09:38:03;;;;;;;2.17;1.25;;;20.80;53.50;;;;;;4981837;28;20460;-59
2021/10/29 09:40:33;;;;;;;2.75;1.48;;;20.90;53.30;;;;;;4976705;28;20030;-56
2021/10/29 09:43:15;;;;;;;;;;;21.00;53.40;;;;;;4987080;28;20046;-59
2021/10/29 09:45:48;;;;;;;2.20;1.30;;;21.00;53.30;;;;;;4990503;28;19913;-57
2021/10/29 09:48:24;;;;;;;2.33;1.33;;;21.00;53.10;;;;;;4990506;28;20141;-59
2021/10/29 09:50:54;;;;;;;2.38;1.30;;;21.10;53.10;;;;;;4993855;28;20091;-61
2021/10/29 09:53:36;;;;;;;;;;;21.10;53.00;;;;;;4975220;28;20130;-60
2021/10/29 09:56:08;;;;;;;2.05;1.30;;;21.20;53.00;;;;;;4986628;28;19946;-56
2021/10/29 09:58:34;;;;;;;2.70;1.63;;;21.20;52.90;;;;;;5004483;28;20038;-58
2021/10/29 10:01:01;;;;;;;2.38;1.58;;;21.20;52.80;;;;;;4989635;28;20038;-62
2021/10/29 10:03:28;;;;;;;2.05;1.30;;;21.20;52.80;;;;;;4995060;28;20456;-61
2021/10/29 10:05:55;;;;;;;2.20;1.50;;;21.20;52.70;;;;;;4985048;28;20485;-61
2021/10/29 10:08:26;;;;;;;2.08;1.38;;;21.30;52.70;;;;;;4988336;28;20040;-57
2021/10/29 10:10:53;;;;;;;3.40;1.70;;;21.30;52.60;;;;;;4986095;28;20426;-60
2021/10/29 10:13:20;;;;;;;3.45;1.90;;;21.30;52.60;;;;;;4994064;28;20163;-59
2021/10/29 10:15:52;;;;;;;3.10;1.75;;;21.30;52.50;;;;;;4981885;28;20045;-56
2021/10/29 10:18:20;;;;;;;3.05;1.80;;;21.40;52.50;;;;;;5001990;28;20034;-60
2021/10/29 10:20:47;;;;;;;2.53;1.83;;;21.40;52.40;;;;;;4980156;28;20050;-60
2021/10/29 10:23:20;;;;;;;3.13;1.80;;;21.40;52.90;;;;;;4995054;28;20038;-61
2021/10/29 10:48:30;;;;;;;4.53;1.85;;;21.50;52.30;;;;;;4979723;28;20030;-62
2021/10/29 10:54:27;;;;;;;4.35;1.98;;;21.50;52.20;;;;;;4988028;28;20030;-60
2021/10/29 11:10:15;;;;;;;3.00;2.00;;;21.50;52.10;;;;;;4993406;28;20482;-60
2021/10/29 11:12:40;;;;;;;3.38;2.10;;;21.50;52.10;;;;;;4995542;28;20105;-62
2021/10/29 11:15:10;;;;;;;2.80;1.90;;;21.50;52.10;;;;;;4994029;28;20086;-62
2021/10/29 11:17:41;;;;;;;2.88;1.80;;;21.50;52.10;;;;;;4975233;28;20035;-59
2021/10/29 11:20:08;;;;;;;4.10;1.90;;;21.50;52.10;;;;;;4981255;28;20041;-60
2021/10/29 11:22:44;;;;;;;3.00;2.00;;;21.50;52.10;;;;;;4978989;28;20030;-62
2021/10/29 11:25:14;;;;;;;3.33;2.08;;;21.50;52.10;;;;;;4978026;28;20027;-63
2021/10/29 11:27:42;;;;;;;2.97;2.00;;;21.50;52.10;;;;;;4987074;28;20117;-62
2021/10/29 11:30:09;;;;;;;3.17;1.92;;;21.50;52.10;;;;;;4991714;28;20034;-62
2021/10/29 11:32:35;;;;;;;3.10;2.00;;;21.40;52.10;;;;;;4994466;28;20049;-60
2021/10/29 11:35:02;;;;;;;3.13;2.10;;;21.40;52.10;;;;;;4998585;28;20663;-60
2021/10/29 11:37:30;;;;;;;3.40;2.00;;;21.40;52.10;;;;;;4982555;28;20037;-61
2021/10/29 11:39:56;;;;;;;3.67;2.25;;;21.40;52.10;;;;;;4984477;28;20041;-61
2021/10/29 11:42:22;;;;;;;2.67;1.80;;;21.40;52.10;;;;;;4984468;28;20030;-60
2021/10/29 11:44:48;;;;;;;2.97;1.98;;;21.40;52.10;;;;;;4985343;28;20049;-60
2021/10/29 11:47:15;;;;;;;3.65;2.13;;;21.40;52.10;;;;;;4985219;28;20036;-59
2021/10/29 11:49:41;;;;;;;3.25;2.17;;;21.40;52.10;;;;;;4986014;28;20774;-59
2021/10/29 11:52:08;;;;;;;2.65;1.90;;;21.40;52.20;;;;;;4986767;28;20026;-60
2021/10/29 11:54:36;;;;;;;3.45;1.80;;;21.40;52.20;;;;;;4986160;28;20220;-61
2021/10/29 12:06:17;;;;;;;2.97;1.98;;;21.40;52.30;;;;;;4953865;28;20397;-61
2021/10/29 12:08:43;;;;;;;3.38;1.90;;;21.40;52.30;;;;;;4988006;28;20133;-62
2021/10/29 12:11:09;;;;;;;3.03;1.88;;;21.40;52.30;;;;;;4989754;28;20125;-60
2021/10/29 12:13:38;;;;;;;3.10;1.92;;;21.40;52.30;;;;;;4982452;28;20035;-61
2021/10/29 12:16:14;;;;;;;3.47;2.03;;;21.40;52.40;;;;;;4980738;28;20026;-62
2021/10/29 12:18:48;;;;;;;3.28;1.90;;;21.40;52.40;;;;;;4979099;28;20030;-60
2021/10/29 12:21:19;;;;;;;3.15;2.00;;;21.40;52.40;;;;;;4981231;28;20045;-61
2021/10/29 12:23:49;;;;;;;3.15;1.92;;;21.40;52.50;;;;;;4978255;28;20049;-62
2021/10/29 12:26:21;;;;;;;4.95;2.05;;;21.40;52.50;;;;;;4986385;28;20041;-61
2021/10/29 12:28:56;;;;;;;3.25;2.00;;;21.40;52.50;;;;;;4983541;28;20035;-59
2021/10/29 12:31:36;;;;;;;5.90;2.03;;;21.40;52.50;;;;;;4979163;28;20042;-60
2021/10/29 12:37:32;;;;;;;3.53;2.30;;;21.40;52.50;;;;;;4979765;28;20042;-60
2021/10/29 13:02:55;;;;;;;3.60;2.30;;;22.00;51.70;;;;;;4981561;28;20072;-59
2021/10/29 13:05:21;;;;;;;3.92;2.40;;;22.20;51.60;;;;;;4975724;28;20035;-61
2021/10/29 13:07:47;;;;;;;4.32;2.63;;;22.30;51.30;;;;;;4978410;28;20031;-61
2021/10/29 13:10:13;;;;;;;4.47;2.30;;;22.40;51.00;;;;;;4985563;28;20041;-61
2021/10/29 13:12:58;;;;;;;3.80;2.13;;;22.40;50.90;;;;;;4986896;28;20045;-60
2021/10/29 13:15:25;;;;;;;3.75;2.20;;;22.50;50.90;;;;;;4958162;22;20053;-72
2021/10/29 13:17:58;;;;;;;3.50;2.13;;;22.60;50.80;;;;;;4995695;28;20295;-74
2021/10/29 14:30:08;;;;;;;3.70;1.90;;;22.90;49.90;;;;;;5032734;28;20451;-75
2021/10/29 14:35:33;;;;;;;5.05;2.10;;;22.80;50.00;;;;;;5012638;28;20425;-74
2021/10/29 14:39:07;;;;;;;3.95;2.00;;;22.80;50.10;;;;;;5038334;28;20022;-72
2021/10/29 14:41:02;;;;;;;3.22;1.80;;;22.80;50.10;;;;;;5013762;28;20049;-71
2021/10/29 14:44:05;;;;;;;2.50;1.73;;;22.80;50.20;;;;;;5028626;28;20033;-75
2021/10/29 14:49:07;;;;;;;3.63;1.70;;;22.70;50.20;;;;;;5031844;28;20032;-76
2021/10/29 14:51:50;;;;;;;2.92;1.70;;;22.70;50.20;;;;;;5024460;28;20060;-74
2021/10/29 15:27:02;;;;;;;2.60;1.50;;;22.40;50.70;;;;;;4991286;28;20105;-75
2021/10/29 15:29:43;;;;;;;3.50;1.70;;;22.40;50.70;;;;;;4998439;28;20760;-73
2021/10/29 15:42:52;;;;;;;3.05;1.60;;;22.30;50.80;;;;;;5027110;28;20028;-74
2021/10/29 15:45:35;;;;;;;2.70;1.60;;;22.30;50.90;;;;;;5022868;28;20044;-75
2021/10/29 15:48:07;;;;;;;2.58;1.52;;;22.20;50.90;;;;;;5015899;28;20634;-74
2021/10/29 15:50:35;;;;;;;2.42;1.50;;;22.20;51.00;;;;;;5020303;28;20029;-74
2021/10/29 15:53:04;;;;;;;2.83;1.60;;;22.20;51.00;;;;;;5023173;28;20032;-74
2021/10/29 15:55:41;;;;;;;3.03;1.40;;;22.20;51.00;;;;;;5024130;28;20040;-73
2021/10/29 16:03:39;;;;;;;2.70;1.53;;;22.10;51.00;;;;;;5023767;28;20029;-74
2021/10/29 16:17:06;;;;;;;2.47;1.63;;;22.00;51.20;;;;;;5017224;28;20079;-75
2021/10/29 16:19:34;;;;;;;3.45;1.48;;;22.00;51.20;;;;;;5023620;28;20029;-74
2021/10/29 16:22:04;;;;;;;2.00;1.30;;;22.00;51.30;;;;;;5019357;28;20091;-72
2021/10/29 16:24:30;;;;;;;1.88;1.30;;;22.00;51.30;;;;;;5021089;28;20042;-73
2021/10/29 16:26:56;;;;;;;2.30;1.35;;;22.00;51.30;;;;;;5018387;28;20781;-73
2021/10/29 16:29:24;;;;;;;2.85;1.40;;;22.00;51.90;;;;;;5020850;28;20096;-73
2021/10/29 16:31:50;;;;;;;2.00;1.33;;;22.00;51.40;;;;;;5020336;28;20725;-74
2021/10/29 16:34:16;;;;;;;2.10;1.48;;;22.00;51.90;;;;;;5021959;28;20083;-75
2021/10/29 16:36:42;;;;;;;1.88;1.40;;;21.90;51.40;;;;;;5019447;28;20455;-71
2021/10/29 16:39:08;;;;;;;3.03;1.40;;;21.90;51.40;;;;;;5020716;28;20022;-75
2021/10/29 16:41:34;;;;;;;2.72;1.30;;;21.90;51.50;;;;;;5021304;28;20350;-75
2021/10/29 16:44:00;;;;;;;2.58;1.40;;;21.90;51.50;;;;;;5025353;28;20120;-74
2021/10/29 16:46:27;;;;;;;2.85;1.52;;;21.90;51.50;;;;;;5024476;28;20353;-75
2021/10/29 16:48:53;;;;;;;2.97;1.40;;;21.90;51.50;;;;;;5015971;28;20053;-75
2021/10/29 16:51:20;;;;;;;1.73;1.20;;;21.90;51.60;;;;;;5014997;28;20730;-74
2021/10/29 16:53:45;;;;;;;2.25;1.30;;;21.80;51.60;;;;;;5019825;28;20107;-74
2021/10/29 16:56:12;;;;;;;2.50;1.30;;;21.80;51.60;;;;;;5018014;28;20126;-74
2021/10/29 16:58:39;;;;;;;2.95;1.40;;;21.90;51.70;;;;;;5016733;28;20018;-72
2021/10/29 17:01:04;;;;;;;1.75;1.20;;;21.80;51.70;;;;;;5015996;28;20098;-74
2021/10/29 17:03:30;;;;;;;1.58;1.20;;;21.80;51.70;;;;;;5022459;28;20885;-74
2021/10/29 17:05:56;;;;;;;2.42;1.35;;;21.80;51.80;;;;;;5030923;28;20037;-75
2021/10/29 17:08:22;;;;;;;2.42;1.25;;;21.80;51.80;;;;;;5016083;28;20036;-72
2021/10/29 17:10:50;;;;;;;2.13;1.38;;;21.80;51.80;;;;;;5014863;28;20550;-72
2021/10/29 17:13:16;;;;;;;4.03;1.55;;;21.70;51.80;;;;;;5017770;28;20037;-74
2021/10/29 17:15:42;;;;;;;2.60;1.40;;;21.70;51.80;;;;;;5017243;28;20040;-74
2021/10/29 17:18:08;;;;;;;2.92;1.55;;;21.70;51.90;;;;;;5021875;28;20049;-74
2021/10/29 17:20:34;;;;;;;2.28;1.40;;;21.70;52.00;;;;;;5019503;28;20734;-74
2021/10/29 17:23:01;;;;;;;3.42;1.50;;;21.70;52.00;;;;;;5016753;28;20025;-74
2021/10/29 17:25:27;;;;;;;2.40;1.38;;;21.70;52.00;;;;;;5010100;28;20037;-74
2021/10/29 17:27:52;;;;;;;2.45;1.40;;;21.70;52.10;;;;;;5012640;28;20043;-75
2021/10/29 17:30:18;;;;;;;2.03;1.27;;;21.70;52.60;;;;;;5015058;28;20045;-74
2021/10/29 17:32:46;;;;;;;1.92;1.30;;;21.60;52.10;;;;;;5016320;28;20025;-73
2021/10/29 17:35:13;;;;;;;3.20;1.30;;;21.60;52.20;;;;;;5014002;28;20034;-76
2021/10/29 17:37:39;;;;;;;2.22;1.40;;;21.60;52.30;;;;;;5015548;28;20433;-75
2021/10/29 17:40:07;;;;;;;2.63;1.40;;;21.60;52.30;;;;;;5010636;28;20416;-75
2021/10/29 17:42:33;;;;;;;2.65;1.45;;;21.60;52.50;;;;;;5016532;28;20049;-73
2021/10/29 17:44:59;;;;;;;1.65;1.17;;;21.60;52.50;;;;;;5015558;28;20038;-75
2021/10/29 17:47:25;;;;;;;2.58;1.38;;;21.60;52.80;;;;;;5013771;28;20127;-74
2021/10/29 17:49:52;;;;;;;2.80;1.40;;;21.60;52.80;;;;;;5022051;28;20417;-74
2021/10/29 17:52:18;;;;;;;3.03;1.52;;;21.60;53.00;;;;;;5019832;28;20424;-75
2021/10/29 17:54:51;;;;;;;2.30;1.10;;;21.60;53.10;;;;;;5012395;28;20025;-75